Time;durP1;ratioP1;P1;durP2;ratioP2;P2;SDS_P1;SDS_P2;PMS_P1;PMS_P2;Temp;Humidity;BMP_temperature;BMP_pressure;BME280_temperature;BME280_humidity;BME280_pressure;Samples;Min_cycle;Max_cycle;Signal;HPM_P1;HPM_P2
2022/11/19 00:01:17;;;;;;;34.43;18.13;;;4.10;99.90;;;;;;5031944;28;20284;-69
2022/11/19 00:03:44;;;;;;;31.40;17.30;;;4.00;99.90;;;;;;5040630;28;20272;-68
2022/11/19 00:06:20;;;;;;;31.23;17.73;;;4.00;99.90;;;;;;5043128;28;20221;-69
2022/11/19 00:08:47;;;;;;;33.30;18.53;;;4.00;99.90;;;;;;5041472;28;20304;-69
2022/11/19 00:12:53;;;;;;;32.43;18.80;;;4.10;99.90;;;;;;5039065;28;20209;-68
2022/11/19 00:14:11;;;;;;;36.17;19.90;;;4.00;99.90;;;;;;5045752;28;20260;-69
2022/11/19 00:16:39;;;;;;;33.77;20.03;;;4.10;99.90;;;;;;5041701;28;20671;-69
2022/11/19 00:19:06;;;;;;;36.93;20.13;;;4.10;99.90;;;;;;5037877;28;20884;-69
2022/11/19 00:21:33;;;;;;;35.87;20.23;;;4.10;99.90;;;;;;5040859;28;20252;-69
2022/11/19 00:24:01;;;;;;;35.67;20.17;;;4.10;99.90;;;;;;5045371;28;20791;-68
2022/11/19 00:26:28;;;;;;;35.00;20.03;;;4.00;99.90;;;;;;5040292;28;20205;-69
2022/11/19 00:28:54;;;;;;;38.07;20.87;;;4.10;99.90;;;;;;5035718;28;20280;-69
2022/11/19 00:31:23;;;;;;;38.57;20.47;;;4.00;99.90;;;;;;5046117;28;20201;-69
2022/11/19 00:33:50;;;;;;;37.37;19.77;;;4.00;99.90;;;;;;5041581;28;20288;-69
2022/11/19 00:36:17;;;;;;;38.77;21.50;;;4.00;99.90;;;;;;5038417;28;20241;-69
2022/11/19 00:38:44;;;;;;;36.80;20.97;;;4.00;99.90;;;;;;5040444;28;20198;-70
2022/11/19 00:41:11;;;;;;;34.87;20.60;;;3.90;99.90;;;;;;5042345;28;20689;-69
2022/11/19 00:43:46;;;;;;;40.00;21.00;;;3.90;99.90;;;;;;5040298;28;20213;-68
2022/11/19 00:46:15;;;;;;;38.10;21.07;;;3.80;99.90;;;;;;5042465;28;20205;-69
2022/11/19 00:48:42;;;;;;;41.93;22.60;;;3.80;99.90;;;;;;5039808;28;20199;-70
2022/11/19 00:51:09;;;;;;;39.70;22.13;;;3.80;99.90;;;;;;5042250;28;20309;-69
2022/11/19 00:53:36;;;;;;;40.63;21.73;;;3.80;99.90;;;;;;5036278;28;20210;-68
2022/11/19 00:56:09;;;;;;;41.03;22.40;;;3.80;99.90;;;;;;5042721;28;20292;-68
2022/11/19 00:58:36;;;;;;;41.17;22.43;;;3.80;99.90;;;;;;5038194;28;20329;-69
2022/11/19 01:01:04;;;;;;;43.77;21.87;;;3.80;99.90;;;;;;5042974;28;20206;-70
2022/11/19 01:03:31;;;;;;;43.23;22.60;;;3.70;99.90;;;;;;5044345;28;20211;-70
2022/11/19 01:05:58;;;;;;;47.50;24.63;;;3.70;99.90;;;;;;5040076;28;21031;-70
2022/11/19 01:08:25;;;;;;;40.60;22.90;;;3.70;99.90;;;;;;5024269;28;20675;-69
2022/11/19 01:10:52;;;;;;;43.17;22.23;;;3.70;99.90;;;;;;5040478;28;20209;-71
2022/11/19 01:13:33;;;;;;;46.50;23.27;;;3.70;99.90;;;;;;5026448;28;20593;-69
2022/11/19 01:16:07;;;;;;;47.90;24.17;;;3.60;99.90;;;;;;5039191;28;20210;-69
2022/11/19 01:18:35;;;;;;;47.70;23.70;;;3.60;99.90;;;;;;5040211;28;20209;-70
2022/11/19 01:21:04;;;;;;;47.97;24.10;;;3.50;99.90;;;;;;5038816;28;20921;-69
2022/11/19 01:23:32;;;;;;;48.03;25.77;;;3.50;99.90;;;;;;5040382;28;20225;-69
2022/11/19 01:25:59;;;;;;;44.57;24.13;;;3.40;99.90;;;;;;5039674;28;20229;-68
2022/11/19 01:28:26;;;;;;;47.67;25.83;;;3.40;99.90;;;;;;5037414;28;20337;-69
2022/11/19 01:30:53;;;;;;;48.70;25.67;;;3.30;99.90;;;;;;5041009;28;20209;-69
2022/11/19 01:33:21;;;;;;;47.83;25.03;;;3.30;99.90;;;;;;5038623;28;20250;-69
2022/11/19 01:35:59;;;;;;;51.37;26.83;;;3.30;99.90;;;;;;5041601;28;20234;-68
2022/11/19 01:38:27;;;;;;;49.60;26.80;;;3.20;99.90;;;;;;5047284;28;20242;-68
2022/11/19 01:40:55;;;;;;;45.43;24.93;;;3.20;99.90;;;;;;5042279;28;21068;-68
2022/11/19 01:43:41;;;;;;;48.13;25.97;;;3.20;99.90;;;;;;5049431;28;20201;-69
2022/11/19 01:46:11;;;;;;;48.13;26.67;;;3.10;99.90;;;;;;5027434;28;20232;-72
2022/11/19 01:48:43;;;;;;;48.20;25.83;;;3.10;99.90;;;;;;5042728;28;20247;-69
2022/11/19 01:51:13;;;;;;;45.47;25.83;;;3.10;99.90;;;;;;5048681;28;20213;-69
2022/11/19 01:53:44;;;;;;;46.70;25.60;;;3.10;99.90;;;;;;5043126;28;20288;-68
2022/11/19 01:56:12;;;;;;;48.20;25.30;;;3.10;99.90;;;;;;5030423;28;20701;-68
2022/11/19 01:58:45;;;;;;;49.00;25.87;;;3.10;99.90;;;;;;5039984;28;20362;-68
2022/11/19 02:01:12;;;;;;;46.43;25.33;;;3.00;99.90;;;;;;5056162;28;20854;-69
2022/11/19 02:03:40;;;;;;;46.33;25.37;;;3.10;99.90;;;;;;5044274;28;20279;-69
2022/11/19 02:06:07;;;;;;;45.67;24.60;;;3.10;99.90;;;;;;5049351;28;20230;-69
2022/11/19 02:08:41;;;;;;;42.93;23.67;;;3.00;99.90;;;;;;5030603;28;20309;-68
2022/11/19 02:11:17;;;;;;;42.23;24.37;;;3.00;99.90;;;;;;5046685;28;20257;-70
2022/11/19 02:13:56;;;;;;;40.87;23.57;;;3.00;99.90;;;;;;5049218;28;20683;-69
2022/11/19 02:16:31;;;;;;;43.47;22.73;;;2.90;99.90;;;;;;5044916;28;20645;-69
2022/11/19 02:19:26;;;;;;;40.17;23.40;;;3.00;99.90;;;;;;5043139;28;20299;-69
2022/11/19 02:22:14;;;;;;;43.10;23.30;;;3.10;99.90;;;;;;5044541;28;20227;-69
2022/11/19 02:25:14;;;;;;;39.53;21.97;;;3.00;99.90;;;;;;5045613;28;20232;-69
2022/11/19 02:28:02;;;;;;;38.00;20.63;;;3.00;99.90;;;;;;5018060;28;20209;-70
2022/11/19 02:30:42;;;;;;;43.33;22.30;;;3.00;99.90;;;;;;5029566;28;20296;-68
2022/11/19 02:33:16;;;;;;;42.43;24.07;;;3.00;99.90;;;;;;5028512;28;20289;-69
2022/11/19 02:35:59;;;;;;;43.07;22.13;;;3.00;99.90;;;;;;5042392;28;20332;-70
2022/11/19 02:38:55;;;;;;;40.73;21.80;;;3.00;99.90;;;;;;5040133;28;20303;-69
2022/11/19 02:41:35;;;;;;;39.40;21.07;;;2.90;99.90;;;;;;5042134;28;20991;-69
2022/11/19 02:47:01;;;;;;;39.90;21.47;;;2.90;99.90;;;;;;5039255;28;20206;-69
2022/11/19 02:49:32;;;;;;;41.87;23.50;;;2.80;99.90;;;;;;5026986;28;20680;-68
2022/11/19 02:51:59;;;;;;;40.87;21.33;;;2.80;99.90;;;;;;5037068;28;20228;-69
2022/11/19 02:54:27;;;;;;;39.17;22.70;;;2.80;99.90;;;;;;5045367;28;20324;-69
2022/11/19 02:56:59;;;;;;;39.80;21.87;;;2.90;99.90;;;;;;5041375;28;20216;-70
2022/11/19 03:05:12;;;;;;;39.90;21.40;;;2.70;99.90;;;;;;5037852;28;20332;-69
2022/11/19 03:07:39;;;;;;;40.70;21.10;;;2.80;99.90;;;;;;5041131;28;20658;-69
2022/11/19 03:10:09;;;;;;;40.37;21.63;;;2.80;99.90;;;;;;5043101;28;20256;-69
2022/11/19 03:16:40;;;;;;;35.97;21.70;;;2.70;99.90;;;;;;5039898;28;20216;-68
2022/11/19 03:18:49;;;;;;;36.80;20.37;;;2.70;99.90;;;;;;5040902;28;20249;-69
2022/11/19 03:21:24;;;;;;;38.87;20.80;;;2.60;99.90;;;;;;5044370;28;20311;-68
2022/11/19 03:24:07;;;;;;;37.30;21.97;;;2.60;99.90;;;;;;5047616;28;20206;-70
2022/11/19 03:26:40;;;;;;;42.07;20.43;;;2.60;99.90;;;;;;5040788;28;21151;-69
2022/11/19 03:29:10;;;;;;;37.40;20.37;;;2.60;99.90;;;;;;5036596;28;20213;-69
2022/11/19 03:31:40;;;;;;;43.67;22.83;;;2.70;99.90;;;;;;5043191;28;20211;-69
2022/11/19 03:34:14;;;;;;;37.03;20.03;;;2.60;99.90;;;;;;5022038;28;20449;-69
2022/11/19 03:36:43;;;;;;;38.53;20.90;;;2.60;99.90;;;;;;5029420;28;20630;-69
2022/11/19 03:39:14;;;;;;;42.33;21.67;;;2.60;99.90;;;;;;5040973;28;20211;-69
2022/11/19 03:41:48;;;;;;;41.07;21.70;;;2.60;99.90;;;;;;5027022;28;20221;-69
2022/11/19 03:44:30;;;;;;;43.80;22.30;;;2.60;99.90;;;;;;5040395;28;20287;-68
2022/11/19 03:47:01;;;;;;;38.03;20.80;;;2.60;99.90;;;;;;5038784;28;20201;-69
2022/11/19 03:49:39;;;;;;;39.23;20.07;;;2.70;99.90;;;;;;5044724;28;20674;-69
2022/11/19 03:52:09;;;;;;;43.43;22.10;;;2.70;99.90;;;;;;5040449;28;20710;-69
2022/11/19 03:54:37;;;;;;;37.70;20.90;;;2.50;99.90;;;;;;5020768;28;20734;-69
2022/11/19 03:57:06;;;;;;;38.43;20.27;;;2.60;99.90;;;;;;5038901;28;20300;-69
2022/11/19 03:59:33;;;;;;;42.27;21.73;;;2.60;99.90;;;;;;5042004;28;20311;-69
2022/11/19 04:02:06;;;;;;;39.80;20.60;;;2.60;99.90;;;;;;5040530;28;20222;-69
2022/11/19 04:04:36;;;;;;;39.37;21.07;;;2.50;99.90;;;;;;5040027;28;20694;-70
2022/11/19 04:07:03;;;;;;;39.13;21.37;;;2.60;99.90;;;;;;5043566;28;20228;-69
2022/11/19 04:09:30;;;;;;;37.17;20.43;;;2.50;99.90;;;;;;5041380;28;20214;-70
2022/11/19 04:11:56;;;;;;;37.43;19.33;;;2.50;99.90;;;;;;5043366;28;20213;-69
2022/11/19 04:14:23;;;;;;;40.50;20.77;;;2.50;99.90;;;;;;5039620;28;20417;-69
2022/11/19 04:16:53;;;;;;;38.50;20.13;;;2.50;99.90;;;;;;5039944;28;20644;-68
2022/11/19 04:19:19;;;;;;;39.07;20.13;;;2.40;99.90;;;;;;5040988;28;20201;-69
2022/11/19 04:21:47;;;;;;;39.47;20.07;;;2.40;99.90;;;;;;5041184;28;20586;-69
2022/11/19 04:24:14;;;;;;;38.80;20.10;;;2.40;99.90;;;;;;5038114;28;20247;-69
2022/11/19 04:26:41;;;;;;;37.47;20.60;;;2.30;99.90;;;;;;5042916;28;20238;-68
2022/11/19 04:29:08;;;;;;;40.30;18.87;;;2.30;99.90;;;;;;5035875;28;20334;-69
2022/11/19 04:31:34;;;;;;;36.07;18.83;;;2.20;99.90;;;;;;5046550;28;20205;-70
2022/11/19 04:34:01;;;;;;;37.33;20.13;;;2.20;99.90;;;;;;5039207;28;20209;-69
2022/11/19 04:36:28;;;;;;;37.50;19.20;;;2.20;99.90;;;;;;5042058;28;20706;-69
2022/11/19 04:38:55;;;;;;;33.63;18.43;;;2.20;99.90;;;;;;5039644;28;20267;-69
2022/11/19 04:41:22;;;;;;;36.40;19.67;;;2.10;99.90;;;;;;5027433;28;20207;-68
2022/11/19 04:43:49;;;;;;;38.17;19.47;;;2.20;99.90;;;;;;5028062;28;20218;-68
2022/11/19 04:46:15;;;;;;;35.13;20.13;;;2.10;99.90;;;;;;5027526;28;20257;-69
2022/11/19 04:48:42;;;;;;;35.23;18.40;;;2.20;99.90;;;;;;5027885;28;20217;-69
2022/11/19 04:51:09;;;;;;;35.90;18.97;;;2.20;99.90;;;;;;5041881;28;20228;-69
2022/11/19 04:53:35;;;;;;;34.97;19.07;;;2.10;99.90;;;;;;5021114;28;20216;-69
2022/11/19 04:56:02;;;;;;;33.67;19.03;;;2.10;99.90;;;;;;5042476;28;20218;-68
2022/11/19 04:58:29;;;;;;;36.90;18.67;;;2.10;99.90;;;;;;5038313;28;20593;-69
2022/11/19 05:00:56;;;;;;;32.90;17.80;;;2.00;99.90;;;;;;5042169;28;20205;-68
2022/11/19 05:03:23;;;;;;;37.00;18.90;;;2.00;99.90;;;;;;5039068;28;20341;-68
2022/11/19 05:05:49;;;;;;;37.37;18.50;;;2.00;99.90;;;;;;5040660;28;20240;-70
2022/11/19 05:08:16;;;;;;;38.03;19.57;;;1.90;99.90;;;;;;5028199;28;20299;-69
2022/11/19 05:10:44;;;;;;;35.70;19.60;;;1.90;99.90;;;;;;5052343;28;20299;-70
2022/11/19 05:13:10;;;;;;;36.37;19.77;;;1.90;99.90;;;;;;5056432;28;20214;-69
2022/11/19 05:15:37;;;;;;;34.73;17.47;;;1.90;99.90;;;;;;5045682;28;20271;-70
2022/11/19 05:18:04;;;;;;;34.63;18.87;;;1.90;99.90;;;;;;5041948;28;20628;-69
2022/11/19 05:20:31;;;;;;;36.80;19.13;;;1.90;99.90;;;;;;5041496;28;20226;-69
2022/11/19 05:22:57;;;;;;;37.63;19.20;;;1.90;99.90;;;;;;5043550;28;20202;-69
2022/11/19 05:25:24;;;;;;;33.93;18.67;;;1.80;99.90;;;;;;5041980;28;20222;-69
2022/11/19 05:27:51;;;;;;;35.67;18.40;;;1.80;99.90;;;;;;5042719;28;20239;-70
2022/11/19 05:30:18;;;;;;;33.60;18.77;;;1.80;99.90;;;;;;5044511;28;20646;-69
2022/11/19 05:32:46;;;;;;;36.90;18.70;;;1.80;99.90;;;;;;5042475;28;20318;-70
2022/11/19 05:35:13;;;;;;;36.40;20.03;;;1.80;99.90;;;;;;5029023;28;20234;-70
2022/11/19 05:37:40;;;;;;;38.33;19.83;;;1.80;99.90;;;;;;5043943;28;20249;-69
2022/11/19 05:40:07;;;;;;;40.23;20.10;;;1.80;99.90;;;;;;5042874;28;20889;-69
2022/11/19 05:42:34;;;;;;;36.87;18.83;;;1.80;99.90;;;;;;5043458;28;20344;-69
2022/11/19 05:45:01;;;;;;;35.93;19.33;;;1.80;99.90;;;;;;5043691;28;20306;-69
2022/11/19 05:47:27;;;;;;;39.33;19.53;;;1.70;99.90;;;;;;5042451;28;20216;-70
2022/11/19 05:49:54;;;;;;;35.30;18.50;;;1.60;99.90;;;;;;5042181;28;20335;-69
2022/11/19 05:52:21;;;;;;;37.73;19.43;;;1.50;99.90;;;;;;5041271;28;20220;-69
2022/11/19 05:54:47;;;;;;;37.23;19.23;;;1.50;99.90;;;;;;5045185;28;20205;-68
2022/11/19 05:57:14;;;;;;;36.53;19.13;;;1.50;99.90;;;;;;5024060;28;20226;-68
2022/11/19 05:59:41;;;;;;;33.67;18.87;;;1.50;99.90;;;;;;5031126;28;20220;-69
2022/11/19 06:02:10;;;;;;;36.73;19.50;;;1.50;99.90;;;;;;5047485;28;20218;-69
2022/11/19 06:04:37;;;;;;;37.43;19.80;;;1.60;99.90;;;;;;5045131;28;20228;-69
2022/11/19 06:07:03;;;;;;;38.33;20.10;;;1.60;99.90;;;;;;5044251;28;20230;-69
2022/11/19 06:09:32;;;;;;;41.43;20.73;;;1.50;99.90;;;;;;5044192;28;20336;-69
2022/11/19 06:11:59;;;;;;;35.63;18.67;;;1.40;99.90;;;;;;5041494;28;20677;-69
2022/11/19 06:14:26;;;;;;;37.00;19.80;;;1.40;99.90;;;;;;5042125;28;20626;-70
2022/11/19 06:16:57;;;;;;;37.20;20.07;;;1.30;99.90;;;;;;5046886;28;20292;-68
2022/11/19 06:19:25;;;;;;;34.33;18.60;;;1.20;99.90;;;;;;5046932;28;20218;-68
2022/11/19 06:21:52;;;;;;;37.53;20.10;;;1.20;99.90;;;;;;5047128;28;20293;-69
2022/11/19 06:24:20;;;;;;;40.00;20.57;;;1.20;99.90;;;;;;5048237;28;20216;-69
2022/11/19 06:26:46;;;;;;;35.83;18.70;;;1.10;99.90;;;;;;5048182;28;20224;-69
2022/11/19 06:29:15;;;;;;;38.33;19.53;;;1.10;99.90;;;;;;5047288;28;20294;-69
2022/11/19 06:31:42;;;;;;;37.13;19.80;;;;;;;;;;5047436;28;20264;-68
2022/11/19 06:34:10;;;;;;;37.33;19.67;;;1.00;99.90;;;;;;5043653;28;20975;-68
2022/11/19 06:36:37;;;;;;;37.07;18.93;;;1.00;99.90;;;;;;5032209;28;20237;-70
2022/11/19 06:39:10;;;;;;;34.77;19.17;;;0.90;99.90;;;;;;5040792;28;20298;-69
2022/11/19 06:41:37;;;;;;;40.23;20.77;;;0.90;99.90;;;;;;5047668;28;20205;-69
2022/11/19 06:44:03;;;;;;;39.03;19.83;;;0.80;99.90;;;;;;5045978;28;20442;-70
2022/11/19 06:46:30;;;;;;;40.10;21.03;;;0.80;99.90;;;;;;5047059;28;20228;-70
2022/11/19 06:48:57;;;;;;;35.97;18.97;;;0.80;99.90;;;;;;5056215;28;20236;-69
2022/11/19 06:51:24;;;;;;;35.27;20.03;;;0.80;99.90;;;;;;5043191;28;20229;-70
2022/11/19 06:53:50;;;;;;;39.67;20.90;;;0.70;99.90;;;;;;5045131;28;20547;-69
2022/11/19 06:56:17;;;;;;;41.13;20.47;;;0.70;99.90;;;;;;5040993;28;20599;-69
2022/11/19 06:58:44;;;;;;;40.37;20.80;;;0.70;99.90;;;;;;5041606;28;20241;-69
2022/11/19 07:01:13;;;;;;;39.73;20.30;;;0.70;99.90;;;;;;5039448;28;20209;-69
2022/11/19 07:03:40;;;;;;;38.60;19.53;;;0.70;99.90;;;;;;5041286;28;20205;-69
2022/11/19 07:06:07;;;;;;;37.27;19.70;;;0.70;99.90;;;;;;5045076;28;20340;-70
2022/11/19 07:08:35;;;;;;;37.10;20.47;;;0.60;99.90;;;;;;5042327;28;20296;-69
2022/11/19 07:11:24;;;;;;;35.90;19.87;;;0.50;99.90;;;;;;5043325;28;20327;-69
2022/11/19 07:13:56;;;;;;;40.20;20.70;;;0.40;99.90;;;;;;5039360;28;20232;-69
2022/11/19 07:16:32;;;;;;;41.53;20.80;;;0.30;99.90;;;;;;5044091;28;20823;-69
2022/11/19 07:19:01;;;;;;;38.23;19.53;;;0.30;99.90;;;;;;5040826;28;20204;-68
2022/11/19 07:21:28;;;;;;;39.33;19.40;;;0.20;99.90;;;;;;5043514;28;20316;-69
2022/11/19 07:23:56;;;;;;;39.23;19.47;;;0.20;99.90;;;;;;5040185;28;20216;-68
2022/11/19 07:26:24;;;;;;;38.50;20.57;;;0.20;99.90;;;;;;5040978;28;20321;-68
2022/11/19 07:28:51;;;;;;;39.70;18.67;;;0.20;99.90;;;;;;5042706;28;20518;-69
2022/11/19 07:31:18;;;;;;;40.67;19.57;;;0.10;99.90;;;;;;5044191;28;20304;-69
2022/11/19 07:33:45;;;;;;;43.27;19.97;;;0.10;99.90;;;;;;5025678;28;20241;-69
2022/11/19 07:36:12;;;;;;;38.33;20.03;;;0.10;99.90;;;;;;5046278;28;20251;-69
2022/11/19 07:38:44;;;;;;;37.43;18.33;;;0.00;99.90;;;;;;5043211;28;20581;-68
2022/11/19 07:43:56;;;;;;;38.83;18.90;;;-0.10;99.90;;;;;;5039954;28;20242;-70
2022/11/19 07:46:23;;;;;;;33.53;17.03;;;0.00;99.90;;;;;;5040262;28;20332;-69
2022/11/19 07:48:54;;;;;;;34.00;18.30;;;0.00;99.90;;;;;;5041186;28;20210;-71
2022/11/19 07:51:22;;;;;;;33.07;18.20;;;0.00;99.90;;;;;;5040612;28;20240;-69
2022/11/19 07:53:49;;;;;;;38.57;20.03;;;-0.10;99.90;;;;;;5042954;28;20263;-70
2022/11/19 07:56:17;;;;;;;31.37;17.17;;;-0.10;99.90;;;;;;5040762;28;20303;-70
2022/11/19 07:58:44;;;;;;;37.23;17.73;;;-0.10;99.90;;;;;;5039203;28;20299;-69
2022/11/19 08:01:17;;;;;;;35.40;17.70;;;-0.10;99.90;;;;;;5040963;28;20287;-70
2022/11/19 08:03:48;;;;;;;32.87;16.83;;;-0.10;99.90;;;;;;5039875;28;20262;-68
2022/11/19 08:06:26;;;;;;;36.97;17.77;;;-0.10;99.90;;;;;;5044587;28;20286;-70
2022/11/19 08:08:55;;;;;;;35.47;17.50;;;-0.10;99.90;;;;;;5050297;28;20299;-69
2022/11/19 08:11:22;;;;;;;36.00;18.83;;;-0.10;99.90;;;;;;5041175;28;20215;-70
2022/11/19 08:13:49;;;;;;;34.97;17.33;;;-0.10;99.90;;;;;;5040820;28;20292;-70
2022/11/19 08:19:08;;;;;;;36.27;17.73;;;0.00;99.90;;;;;;5039757;28;20221;-69
2022/11/19 08:21:40;;;;;;;34.23;17.40;;;0.00;99.90;;;;;;5044226;28;20323;-70
2022/11/19 08:24:08;;;;;;;34.67;17.00;;;0.00;99.90;;;;;;5046987;28;20197;-70
2022/11/19 08:26:35;;;;;;;34.17;17.37;;;-0.10;99.90;;;;;;5044030;28;20677;-71
2022/11/19 08:29:03;;;;;;;28.93;16.30;;;0.00;99.90;;;;;;5036203;28;20217;-70
2022/11/19 08:31:30;;;;;;;32.73;16.43;;;-0.10;99.90;;;;;;5044360;28;20764;-70
2022/11/19 08:33:57;;;;;;;29.17;15.57;;;-0.10;99.90;;;;;;5039578;28;20227;-71
2022/11/19 08:36:23;;;;;;;30.93;15.40;;;-0.10;99.90;;;;;;5042026;28;20480;-69
2022/11/19 08:38:50;;;;;;;30.77;16.07;;;-0.10;99.90;;;;;;5045400;28;20203;-70
2022/11/19 08:44:02;;;;;;;28.00;14.90;;;0.00;99.90;;;;;;5039157;28;20742;-69
2022/11/19 08:46:29;;;;;;;31.33;15.77;;;0.00;99.90;;;;;;5045738;28;20279;-70
2022/11/19 08:48:56;;;;;;;27.17;15.50;;;0.00;99.90;;;;;;5045732;28;20194;-70
2022/11/19 08:51:23;;;;;;;31.67;15.47;;;0.00;99.90;;;;;;5045105;28;20323;-69
2022/11/19 08:53:52;;;;;;;28.60;14.50;;;0.00;99.90;;;;;;5028182;28;20926;-71
2022/11/19 08:56:20;;;;;;;29.07;15.97;;;0.00;99.90;;;;;;5040959;28;20196;-70
2022/11/19 08:58:47;;;;;;;29.90;14.97;;;0.10;99.90;;;;;;5038897;28;20300;-70
2022/11/19 09:01:16;;;;;;;26.40;14.97;;;0.10;99.90;;;;;;5041516;28;20294;-70
2022/11/19 09:03:44;;;;;;;29.53;14.67;;;0.10;99.90;;;;;;5045466;28;20236;-70
2022/11/19 09:06:11;;;;;;;27.57;14.50;;;0.20;99.90;;;;;;5027636;28;20315;-69
2022/11/19 09:08:39;;;;;;;27.10;14.03;;;0.20;99.90;;;;;;5040046;28;20282;-69
2022/11/19 09:11:08;;;;;;;26.70;13.13;;;0.20;99.90;;;;;;5041355;28;20211;-69
2022/11/19 09:13:35;;;;;;;25.87;14.03;;;0.20;99.90;;;;;;5021339;28;20649;-70
2022/11/19 09:16:03;;;;;;;26.20;13.83;;;0.20;99.90;;;;;;5020869;28;20863;-70
2022/11/19 09:18:30;;;;;;;24.90;13.87;;;0.20;99.90;;;;;;5022678;28;20285;-69
2022/11/19 09:20:58;;;;;;;31.30;15.13;;;0.30;99.90;;;;;;5039741;28;20941;-69
2022/11/19 09:23:26;;;;;;;23.27;12.37;;;0.30;99.90;;;;;;5044272;28;20201;-71
2022/11/19 09:26:00;;;;;;;25.73;13.93;;;0.30;99.90;;;;;;5038652;28;20290;-69
2022/11/19 09:28:28;;;;;;;24.93;14.00;;;0.30;99.90;;;;;;5028341;28;20200;-70
2022/11/19 09:31:00;;;;;;;25.37;13.83;;;0.40;99.90;;;;;;5039485;28;20210;-70
2022/11/19 09:33:29;;;;;;;25.00;13.70;;;0.40;99.90;;;;;;5045375;28;20212;-70
2022/11/19 09:35:56;;;;;;;23.67;12.17;;;0.40;99.90;;;;;;5053650;28;20221;-70
2022/11/19 09:38:22;;;;;;;25.53;12.60;;;0.50;99.90;;;;;;5047261;28;20210;-69
2022/11/19 09:40:54;;;;;;;23.43;12.70;;;0.50;99.90;;;;;;5042466;28;20229;-70
2022/11/19 09:43:33;;;;;;;24.87;13.70;;;0.50;99.90;;;;;;5041252;28;20206;-70
2022/11/19 09:46:17;;;;;;;21.30;11.80;;;0.50;99.90;;;;;;5043766;28;20211;-69
2022/11/19 09:48:44;;;;;;;27.30;14.23;;;0.60;99.90;;;;;;5042609;28;20197;-67
2022/11/19 09:51:15;;;;;;;19.40;11.83;;;0.60;99.90;;;;;;5040290;28;20237;-69
2022/11/19 09:53:50;;;;;;;21.33;12.17;;;0.70;99.90;;;;;;5041376;28;20316;-68
2022/11/19 09:56:26;;;;;;;22.33;12.40;;;0.70;99.90;;;;;;5025596;28;20292;-69
2022/11/19 09:58:55;;;;;;;22.60;12.03;;;0.80;99.90;;;;;;5041868;28;20598;-68
2022/11/19 10:01:22;;;;;;;22.33;11.97;;;0.80;99.90;;;;;;5042009;28;20220;-69
2022/11/19 10:03:52;;;;;;;19.87;11.37;;;0.80;99.90;;;;;;5044887;28;20315;-69
2022/11/19 10:06:23;;;;;;;18.40;10.17;;;0.80;99.90;;;;;;5040152;28;22110;-69
2022/11/19 10:09:23;;;;;;;19.40;10.80;;;0.90;99.90;;;;;;5055384;28;20247;-70
2022/11/19 10:11:50;;;;;;;22.40;12.10;;;0.90;99.90;;;;;;5041048;28;20244;-68
2022/11/19 10:14:46;;;;;;;18.13;10.60;;;1.00;99.90;;;;;;5029488;28;20296;-69
2022/11/19 10:17:51;;;;;;;17.33;10.30;;;1.10;99.90;;;;;;5042823;28;20661;-69
2022/11/19 10:20:52;;;;;;;20.03;11.43;;;1.10;99.90;;;;;;5043900;28;20203;-69
2022/11/19 10:23:34;;;;;;;18.83;10.77;;;1.20;99.90;;;;;;5052919;28;20673;-69
2022/11/19 10:26:07;;;;;;;17.30;10.40;;;1.20;99.90;;;;;;5042250;28;20213;-69
2022/11/19 10:28:36;;;;;;;18.83;10.67;;;1.30;99.90;;;;;;5042154;28;20734;-70
2022/11/19 10:31:32;;;;;;;17.53;9.63;;;1.30;99.90;;;;;;5046115;28;20197;-71
2022/11/19 10:34:06;;;;;;;16.53;9.73;;;1.50;99.90;;;;;;5048524;28;20206;-69
2022/11/19 10:36:49;;;;;;;15.53;9.20;;;1.50;99.90;;;;;;5038519;28;20665;-68
2022/11/19 10:39:22;;;;;;;16.67;10.17;;;1.60;99.90;;;;;;5043894;28;20209;-70
2022/11/19 10:41:54;;;;;;;14.83;8.97;;;1.60;99.90;;;;;;5042164;28;20705;-68
2022/11/19 10:44:45;;;;;;;15.53;9.70;;;1.60;99.90;;;;;;5046413;28;20300;-69
2022/11/19 10:47:21;;;;;;;18.47;10.07;;;1.70;99.90;;;;;;5042010;28;20242;-70
2022/11/19 10:49:53;;;;;;;16.77;9.43;;;1.70;99.90;;;;;;5041108;28;20204;-69
2022/11/19 10:52:40;;;;;;;16.70;10.13;;;1.80;99.90;;;;;;5041889;28;20288;-70
2022/11/19 10:55:27;;;;;;;15.47;9.47;;;1.80;99.90;;;;;;5043519;28;20696;-70
2022/11/19 10:58:23;;;;;;;15.20;9.50;;;1.90;99.90;;;;;;5037580;28;20302;-69
2022/11/19 11:00:53;;;;;;;15.77;8.90;;;1.90;99.90;;;;;;5052328;28;20197;-69
2022/11/19 11:03:30;;;;;;;17.27;9.43;;;2.00;99.90;;;;;;5044379;28;20201;-69
2022/11/19 11:06:03;;;;;;;15.33;9.50;;;2.10;99.90;;;;;;5045733;28;20309;-70
2022/11/19 11:08:52;;;;;;;14.40;8.53;;;2.10;99.90;;;;;;5045917;28;20262;-69
2022/11/19 11:14:50;;;;;;;13.50;8.30;;;2.20;99.90;;;;;;5032378;28;20314;-69
2022/11/19 11:17:25;;;;;;;14.60;7.90;;;2.20;99.90;;;;;;5042558;28;20206;-70
2022/11/19 11:20:03;;;;;;;10.63;7.63;;;2.30;99.90;;;;;;5043919;28;20242;-69
2022/11/19 11:22:31;;;;;;;11.50;7.57;;;2.30;99.90;;;;;;5044224;28;20767;-70
2022/11/19 11:24:59;;;;;;;15.57;8.47;;;2.40;99.90;;;;;;5043668;28;20207;-70
2022/11/19 11:27:34;;;;;;;11.17;7.27;;;2.40;99.90;;;;;;5046423;28;20226;-70
2022/11/19 11:30:10;;;;;;;13.20;8.00;;;2.50;99.90;;;;;;5028772;28;20230;-68
2022/11/19 11:32:39;;;;;;;12.77;7.53;;;2.50;99.90;;;;;;5048558;28;20206;-68
2022/11/19 11:35:29;;;;;;;12.07;7.63;;;2.60;99.90;;;;;;5044082;28;20256;-69
2022/11/19 11:37:59;;;;;;;12.17;7.03;;;2.60;99.90;;;;;;5047789;28;20224;-70
2022/11/19 11:40:26;;;;;;;11.37;7.17;;;2.70;99.90;;;;;;5042956;28;20209;-69
2022/11/19 11:42:53;;;;;;;14.33;7.90;;;2.70;99.90;;;;;;5051840;28;20260;-70
2022/11/19 11:45:35;;;;;;;12.17;7.30;;;2.70;99.90;;;;;;5050820;28;20238;-70
2022/11/19 11:48:07;;;;;;;10.33;6.83;;;2.80;99.90;;;;;;5038849;28;20920;-70
2022/11/19 11:50:36;;;;;;;10.07;6.53;;;2.90;99.90;;;;;;5042996;28;20221;-68
2022/11/19 11:53:08;;;;;;;10.30;6.83;;;2.90;99.90;;;;;;5037387;28;20209;-70
2022/11/19 11:55:37;;;;;;;9.97;6.53;;;2.90;99.90;;;;;;5040119;28;20214;-69
2022/11/19 11:58:26;;;;;;;9.50;6.20;;;3.00;99.90;;;;;;5024977;28;21055;-69
2022/11/19 12:00:54;;;;;;;9.30;6.37;;;3.00;99.90;;;;;;5040711;28;20608;-69
2022/11/19 12:03:21;;;;;;;7.97;5.53;;;3.10;99.90;;;;;;5045529;28;20308;-70
2022/11/19 12:06:11;;;;;;;8.20;5.47;;;3.10;99.90;;;;;;5041741;28;20213;-68
2022/11/19 12:09:03;;;;;;;7.33;5.10;;;3.20;99.90;;;;;;5038460;28;20312;-69
2022/11/19 12:11:58;;;;;;;7.10;5.23;;;3.20;99.90;;;;;;5042281;28;20247;-69
2022/11/19 12:14:38;;;;;;;7.00;4.60;;;3.30;99.90;;;;;;5039282;28;20318;-69
2022/11/19 12:17:24;;;;;;;9.07;5.53;;;3.30;99.90;;;;;;5062141;28;20208;-69
2022/11/19 12:20:19;;;;;;;8.17;5.07;;;3.30;99.90;;;;;;5061228;28;20224;-69
2022/11/19 12:23:14;;;;;;;8.77;5.60;;;3.40;99.90;;;;;;5059257;28;20221;-69
2022/11/19 12:26:14;;;;;;;7.90;5.27;;;3.40;99.90;;;;;;5059600;28;20241;-70
2022/11/19 12:29:23;;;;;;;8.70;5.60;;;3.40;99.90;;;;;;5045486;28;20659;-69
2022/11/19 12:32:11;;;;;;;8.83;6.00;;;3.40;99.90;;;;;;5058035;28;20216;-69
2022/11/19 12:34:51;;;;;;;9.10;5.70;;;3.40;99.90;;;;;;5061567;28;20219;-70
2022/11/19 12:37:28;;;;;;;8.13;6.37;;;3.40;99.90;;;;;;5052924;28;20635;-69
2022/11/19 12:40:13;;;;;;;11.20;6.30;;;3.40;99.90;;;;;;5060949;28;20289;-68
2022/11/19 12:43:02;;;;;;;9.63;6.53;;;3.30;99.90;;;;;;5059002;28;20238;-70
2022/11/19 12:45:57;;;;;;;10.47;6.37;;;3.30;99.90;;;;;;5057769;28;20316;-70
2022/11/19 12:49:08;;;;;;;8.90;5.40;;;3.20;99.90;;;;;;5057997;28;20806;-70
2022/11/19 12:51:51;;;;;;;10.10;6.97;;;3.20;99.90;;;;;;5057058;28;20906;-71
2022/11/19 12:54:17;;;;;;;9.33;5.97;;;3.20;99.90;;;;;;5073242;28;20193;-69
2022/11/19 12:57:28;;;;;;;10.97;6.80;;;3.20;99.90;;;;;;5060762;28;20698;-70
2022/11/19 13:00:10;;;;;;;9.10;5.93;;;3.30;99.90;;;;;;5055361;28;20211;-69
2022/11/19 13:03:11;;;;;;;9.73;6.00;;;3.30;99.90;;;;;;5058123;28;20209;-69
2022/11/19 13:05:44;;;;;;;10.83;6.47;;;3.30;99.90;;;;;;5056175;28;20774;-69
2022/11/19 13:08:24;;;;;;;7.77;5.57;;;3.30;99.90;;;;;;5062592;28;20324;-69
2022/11/19 13:11:07;;;;;;;8.53;6.47;;;3.40;99.90;;;;;;5046730;28;20738;-69
2022/11/19 13:13:37;;;;;;;10.03;6.53;;;3.20;99.90;;;;;;5055490;28;20577;-69
2022/11/19 13:16:11;;;;;;;9.27;6.13;;;3.20;99.90;;;;;;5068872;28;20575;-69
2022/11/19 13:18:42;;;;;;;9.07;6.40;;;3.30;99.90;;;;;;5077036;28;20953;-69
2022/11/19 13:21:36;;;;;;;10.87;6.30;;;3.30;99.90;;;;;;5070487;28;20209;-69
2022/11/19 13:24:24;;;;;;;10.13;6.27;;;3.30;99.90;;;;;;5058122;28;20253;-69
2022/11/19 13:26:56;;;;;;;12.10;6.43;;;3.30;99.90;;;;;;5057314;28;20247;-69
2022/11/19 13:29:43;;;;;;;8.80;6.03;;;3.30;99.90;;;;;;5060564;28;20211;-70
2022/11/19 13:32:23;;;;;;;9.00;6.70;;;3.30;99.90;;;;;;5065954;28;20203;-70